Aérodrome :
LOGIN :

S'inscrire | Disclaimer

   EN    FR    IT 

 










Légende :    VFR   VFR Marginal   IFR   IFR Intensif   IFR Très Intensif
Visi : 
Plafond : 
>= 8 km
>= 3000ft
5 à 8 km
1000 à 3000 ft
1500m à 5 km
500 à 1000 ft
800 à 1500m
200 à 500 ft
< 800m
< 200 ft
Symboles :   Orages  Brouillard  Fortes neiges  Fortes précipitations  Vent > 20 kt
SIGMETs :   Divers  Orages  Givrage  Turbulence  Onde Orograph.  Cendres Volcan.







- Altitude de l'aérodrome : 7 ft
- Code IATA : XHE
- Voir les cartes d'approche


LFTH - Hyeres

DERNIER METAR :
  • 180630Z AUTO VRB02KT CAVOK 24/16 Q1016 NOSIG

METARs EXPIRÉS :
  • 180600Z AUTO 04002KT CAVOK 22/16 Q1016 NOSIG
  • 180530Z AUTO VRB02KT CAVOK 20/15 Q1016 NOSIG
  • 180500Z AUTO 00000KT CAVOK 19/15 Q1016 NOSIG
  • 180430Z AUTO 04006KT CAVOK 19/15 Q1016 NOSIG
  • 180400Z AUTO 33005KT CAVOK 21/15 Q1015 NOSIG

TAF TAF LFTH
Valide du 18 à 03h jusqu'au 19 à 03h UTC


180200Z 1803/1903 VRB05KT CAVOK
BECMG 1809/1812 13010KT
BECMG 1812/1814 23010KT
BECMG 1821/1824 VRB05KT
Pas de NOTAMs connus pour ce terrain.



MET'MAP, la Météo Aéronautique d'un coup d'oeil ! - Copyright ORBIFLY Décembre 2007 - Disclaimer

ORBIFLY MET'MAP TEAM :

Programmation & Développement : Alexandra Zaïnal
Conception & Développement : Baudouin d'Aumeries
Co-Programmation & Développement : Marc-Olivier Méhu
Soutien technique & logistique : Manuel Goepfert

Contact : metmap@orbifly.com




SOURCES & CREDITS :

   NOAA